sensor_id;sensor_type;location;lat;lon;timestamp;P1;durP1;ratioP1;P2;durP2;ratioP2
16832;SDS011;8533;48.426;10.868;2024-01-15T00:01:11;23.77;;;9.57;;
16832;SDS011;8533;48.426;10.868;2024-01-15T00:03:36;25.20;;;9.80;;
16832;SDS011;8533;48.426;10.868;2024-01-15T00:06:02;19.80;;;9.33;;
16832;SDS011;8533;48.426;10.868;2024-01-15T00:08:27;23.10;;;8.73;;
16832;SDS011;8533;48.426;10.868;2024-01-15T00:10:52;17.53;;;8.37;;
16832;SDS011;8533;48.426;10.868;2024-01-15T00:13:18;19.00;;;8.57;;
16832;SDS011;8533;48.426;10.868;2024-01-15T00:15:43;19.87;;;9.50;;
16832;SDS011;8533;48.426;10.868;2024-01-15T00:18:08;20.83;;;8.23;;
16832;SDS011;8533;48.426;10.868;2024-01-15T00:20:34;23.00;;;8.97;;
16832;SDS011;8533;48.426;10.868;2024-01-15T00:22:59;18.97;;;9.50;;
16832;SDS011;8533;48.426;10.868;2024-01-15T00:25:24;20.60;;;8.87;;
16832;SDS011;8533;48.426;10.868;2024-01-15T00:27:50;21.23;;;9.17;;
16832;SDS011;8533;48.426;10.868;2024-01-15T00:30:15;18.80;;;8.53;;
16832;SDS011;8533;48.426;10.868;2024-01-15T00:32:40;20.07;;;8.87;;
16832;SDS011;8533;48.426;10.868;2024-01-15T00:35:06;14.47;;;7.43;;
16832;SDS011;8533;48.426;10.868;2024-01-15T00:37:31;27.57;;;11.20;;
16832;SDS011;8533;48.426;10.868;2024-01-15T00:39:57;19.33;;;8.57;;
16832;SDS011;8533;48.426;10.868;2024-01-15T00:42:22;21.03;;;9.03;;
16832;SDS011;8533;48.426;10.868;2024-01-15T00:44:47;19.23;;;9.07;;
16832;SDS011;8533;48.426;10.868;2024-01-15T00:47:13;21.33;;;8.23;;
16832;SDS011;8533;48.426;10.868;2024-01-15T00:49:38;19.93;;;8.80;;
16832;SDS011;8533;48.426;10.868;2024-01-15T00:52:03;24.23;;;8.87;;
16832;SDS011;8533;48.426;10.868;2024-01-15T00:54:29;26.80;;;9.47;;
16832;SDS011;8533;48.426;10.868;2024-01-15T00:56:54;20.60;;;8.30;;
16832;SDS011;8533;48.426;10.868;2024-01-15T00:59:20;21.00;;;8.77;;
16832;SDS011;8533;48.426;10.868;2024-01-15T01:01:45;23.87;;;9.67;;
16832;SDS011;8533;48.426;10.868;2024-01-15T01:04:11;20.97;;;9.33;;
16832;SDS011;8533;48.426;10.868;2024-01-15T01:06:37;17.77;;;8.97;;
16832;SDS011;8533;48.426;10.868;2024-01-15T01:09:02;22.80;;;10.83;;
16832;SDS011;8533;48.426;10.868;2024-01-15T01:11:27;19.13;;;8.53;;
16832;SDS011;8533;48.426;10.868;2024-01-15T01:13:53;19.50;;;9.33;;
16832;SDS011;8533;48.426;10.868;2024-01-15T01:16:18;19.70;;;8.47;;
16832;SDS011;8533;48.426;10.868;2024-01-15T01:18:43;19.67;;;9.43;;
16832;SDS011;8533;48.426;10.868;2024-01-15T01:21:08;22.23;;;9.13;;
16832;SDS011;8533;48.426;10.868;2024-01-15T01:23:34;21.10;;;8.43;;
16832;SDS011;8533;48.426;10.868;2024-01-15T01:25:59;21.97;;;9.70;;
16832;SDS011;8533;48.426;10.868;2024-01-15T01:28:24;20.97;;;8.40;;
16832;SDS011;8533;48.426;10.868;2024-01-15T01:30:49;21.33;;;8.53;;
16832;SDS011;8533;48.426;10.868;2024-01-15T01:33:15;16.20;;;8.60;;
16832;SDS011;8533;48.426;10.868;2024-01-15T01:35:40;21.30;;;8.93;;
16832;SDS011;8533;48.426;10.868;2024-01-15T01:38:05;23.80;;;9.37;;
16832;SDS011;8533;48.426;10.868;2024-01-15T01:40:31;18.07;;;7.73;;
16832;SDS011;8533;48.426;10.868;2024-01-15T01:42:56;21.33;;;8.63;;
16832;SDS011;8533;48.426;10.868;2024-01-15T01:45:21;22.73;;;9.63;;
16832;SDS011;8533;48.426;10.868;2024-01-15T01:47:47;15.80;;;7.87;;
16832;SDS011;8533;48.426;10.868;2024-01-15T01:50:12;17.43;;;7.23;;
16832;SDS011;8533;48.426;10.868;2024-01-15T01:52:38;18.10;;;7.27;;
16832;SDS011;8533;48.426;10.868;2024-01-15T01:55:05;14.03;;;6.27;;
16832;SDS011;8533;48.426;10.868;2024-01-15T01:57:32;19.07;;;6.90;;
16832;SDS011;8533;48.426;10.868;2024-01-15T02:00:00;15.37;;;7.07;;
16832;SDS011;8533;48.426;10.868;2024-01-15T02:02:28;14.23;;;6.80;;
16832;SDS011;8533;48.426;10.868;2024-01-15T02:04:54;11.60;;;6.13;;
16832;SDS011;8533;48.426;10.868;2024-01-15T02:07:19;16.53;;;6.43;;
16832;SDS011;8533;48.426;10.868;2024-01-15T02:09:45;14.50;;;6.00;;
16832;SDS011;8533;48.426;10.868;2024-01-15T02:12:11;13.53;;;6.33;;
16832;SDS011;8533;48.426;10.868;2024-01-15T02:14:36;11.80;;;5.47;;
16832;SDS011;8533;48.426;10.868;2024-01-15T02:17:02;13.37;;;5.87;;
16832;SDS011;8533;48.426;10.868;2024-01-15T02:19:27;16.97;;;6.07;;
16832;SDS011;8533;48.426;10.868;2024-01-15T02:21:52;14.77;;;5.87;;
16832;SDS011;8533;48.426;10.868;2024-01-15T02:24:17;15.63;;;6.53;;
16832;SDS011;8533;48.426;10.868;2024-01-15T02:26:43;10.60;;;5.50;;
16832;SDS011;8533;48.426;10.868;2024-01-15T02:29:09;11.53;;;6.13;;
16832;SDS011;8533;48.426;10.868;2024-01-15T02:31:35;13.63;;;5.37;;
16832;SDS011;8533;48.426;10.868;2024-01-15T02:34:01;13.40;;;6.63;;
16832;SDS011;8533;48.426;10.868;2024-01-15T02:36:27;10.90;;;5.37;;
16832;SDS011;8533;48.426;10.868;2024-01-15T02:38:52;12.67;;;6.10;;
16832;SDS011;8533;48.426;10.868;2024-01-15T02:41:17;10.37;;;4.90;;
16832;SDS011;8533;48.426;10.868;2024-01-15T02:43:42;10.80;;;5.90;;
16832;SDS011;8533;48.426;10.868;2024-01-15T02:46:08;13.90;;;6.20;;
16832;SDS011;8533;48.426;10.868;2024-01-15T02:48:33;11.77;;;5.37;;
16832;SDS011;8533;48.426;10.868;2024-01-15T02:51:00;13.57;;;5.93;;
16832;SDS011;8533;48.426;10.868;2024-01-15T02:53:26;13.70;;;5.87;;
16832;SDS011;8533;48.426;10.868;2024-01-15T02:55:51;11.07;;;6.50;;
16832;SDS011;8533;48.426;10.868;2024-01-15T02:58:16;11.77;;;5.37;;
16832;SDS011;8533;48.426;10.868;2024-01-15T03:00:42;14.93;;;5.83;;
16832;SDS011;8533;48.426;10.868;2024-01-15T03:03:07;11.07;;;5.13;;
16832;SDS011;8533;48.426;10.868;2024-01-15T03:05:32;9.33;;;5.23;;
16832;SDS011;8533;48.426;10.868;2024-01-15T03:07:58;12.17;;;5.57;;
16832;SDS011;8533;48.426;10.868;2024-01-15T03:10:23;11.93;;;4.87;;
16832;SDS011;8533;48.426;10.868;2024-01-15T03:12:48;14.40;;;5.33;;
16832;SDS011;8533;48.426;10.868;2024-01-15T03:15:14;10.40;;;5.03;;
16832;SDS011;8533;48.426;10.868;2024-01-15T03:21:01;10.63;;;4.40;;
16832;SDS011;8533;48.426;10.868;2024-01-15T03:23:26;11.87;;;5.40;;
16832;SDS011;8533;48.426;10.868;2024-01-15T03:25:52;13.37;;;5.60;;
16832;SDS011;8533;48.426;10.868;2024-01-15T03:28:17;9.37;;;4.70;;
16832;SDS011;8533;48.426;10.868;2024-01-15T03:30:42;13.53;;;5.47;;
16832;SDS011;8533;48.426;10.868;2024-01-15T03:33:07;10.27;;;5.60;;
16832;SDS011;8533;48.426;10.868;2024-01-15T03:35:33;7.90;;;4.93;;
16832;SDS011;8533;48.426;10.868;2024-01-15T03:37:58;9.10;;;5.20;;
16832;SDS011;8533;48.426;10.868;2024-01-15T03:40:23;10.90;;;5.30;;
16832;SDS011;8533;48.426;10.868;2024-01-15T03:42:49;10.53;;;4.77;;
16832;SDS011;8533;48.426;10.868;2024-01-15T03:45:14;10.03;;;4.67;;
16832;SDS011;8533;48.426;10.868;2024-01-15T03:47:39;10.60;;;4.90;;
16832;SDS011;8533;48.426;10.868;2024-01-15T03:50:05;11.30;;;4.93;;
16832;SDS011;8533;48.426;10.868;2024-01-15T03:52:30;9.03;;;4.73;;
16832;SDS011;8533;48.426;10.868;2024-01-15T03:54:56;13.30;;;5.23;;
16832;SDS011;8533;48.426;10.868;2024-01-15T03:57:21;12.57;;;5.63;;
16832;SDS011;8533;48.426;10.868;2024-01-15T03:59:46;16.23;;;5.30;;
16832;SDS011;8533;48.426;10.868;2024-01-15T04:02:12;10.90;;;4.97;;
16832;SDS011;8533;48.426;10.868;2024-01-15T04:04:40;10.93;;;4.87;;
16832;SDS011;8533;48.426;10.868;2024-01-15T04:07:07;12.30;;;5.07;;
16832;SDS011;8533;48.426;10.868;2024-01-15T04:09:32;12.13;;;5.63;;
16832;SDS011;8533;48.426;10.868;2024-01-15T04:11:57;11.57;;;5.10;;
16832;SDS011;8533;48.426;10.868;2024-01-15T04:14:22;9.47;;;4.93;;
16832;SDS011;8533;48.426;10.868;2024-01-15T04:16:48;13.87;;;5.83;;
16832;SDS011;8533;48.426;10.868;2024-01-15T04:19:13;9.60;;;5.13;;
16832;SDS011;8533;48.426;10.868;2024-01-15T04:21:39;11.03;;;5.47;;
16832;SDS011;8533;48.426;10.868;2024-01-15T04:24:04;12.27;;;5.40;;
16832;SDS011;8533;48.426;10.868;2024-01-15T04:26:30;11.20;;;4.87;;
16832;SDS011;8533;48.426;10.868;2024-01-15T04:28:55;10.13;;;5.60;;
16832;SDS011;8533;48.426;10.868;2024-01-15T04:31:22;11.73;;;5.77;;
16832;SDS011;8533;48.426;10.868;2024-01-15T04:33:48;8.93;;;5.60;;
16832;SDS011;8533;48.426;10.868;2024-01-15T04:36:14;12.30;;;4.57;;
16832;SDS011;8533;48.426;10.868;2024-01-15T04:38:39;9.20;;;4.77;;
16832;SDS011;8533;48.426;10.868;2024-01-15T04:41:04;11.23;;;4.50;;
16832;SDS011;8533;48.426;10.868;2024-01-15T04:43:29;10.27;;;4.90;;
16832;SDS011;8533;48.426;10.868;2024-01-15T04:45:55;10.27;;;4.70;;
16832;SDS011;8533;48.426;10.868;2024-01-15T04:48:20;10.87;;;4.83;;
16832;SDS011;8533;48.426;10.868;2024-01-15T04:50:47;10.40;;;4.70;;
16832;SDS011;8533;48.426;10.868;2024-01-15T04:53:13;8.33;;;4.87;;
16832;SDS011;8533;48.426;10.868;2024-01-15T04:55:38;11.23;;;4.20;;
16832;SDS011;8533;48.426;10.868;2024-01-15T04:58:04;9.90;;;4.73;;
16832;SDS011;8533;48.426;10.868;2024-01-15T05:00:29;9.47;;;4.03;;
16832;SDS011;8533;48.426;10.868;2024-01-15T05:02:54;10.13;;;4.83;;
16832;SDS011;8533;48.426;10.868;2024-01-15T05:05:21;11.83;;;4.47;;
16832;SDS011;8533;48.426;10.868;2024-01-15T05:07:46;11.57;;;5.03;;
16832;SDS011;8533;48.426;10.868;2024-01-15T05:10:11;9.17;;;4.60;;
16832;SDS011;8533;48.426;10.868;2024-01-15T05:12:37;12.10;;;4.97;;
16832;SDS011;8533;48.426;10.868;2024-01-15T05:15:02;9.97;;;4.53;;
16832;SDS011;8533;48.426;10.868;2024-01-15T05:17:29;8.53;;;4.40;;
16832;SDS011;8533;48.426;10.868;2024-01-15T05:19:54;9.63;;;4.70;;
16832;SDS011;8533;48.426;10.868;2024-01-15T05:22:19;9.67;;;4.40;;
16832;SDS011;8533;48.426;10.868;2024-01-15T05:24:46;10.20;;;4.57;;
16832;SDS011;8533;48.426;10.868;2024-01-15T05:27:11;11.67;;;4.77;;
16832;SDS011;8533;48.426;10.868;2024-01-15T05:29:36;11.00;;;4.60;;
16832;SDS011;8533;48.426;10.868;2024-01-15T05:32:02;9.73;;;4.60;;
16832;SDS011;8533;48.426;10.868;2024-01-15T05:34:27;8.90;;;4.27;;
16832;SDS011;8533;48.426;10.868;2024-01-15T05:36:52;8.03;;;4.03;;
16832;SDS011;8533;48.426;10.868;2024-01-15T05:39:18;10.03;;;4.63;;
16832;SDS011;8533;48.426;10.868;2024-01-15T05:41:43;6.23;;;3.50;;
16832;SDS011;8533;48.426;10.868;2024-01-15T05:44:08;8.03;;;4.07;;
16832;SDS011;8533;48.426;10.868;2024-01-15T05:46:33;7.97;;;3.77;;
16832;SDS011;8533;48.426;10.868;2024-01-15T05:48:59;8.83;;;3.60;;
16832;SDS011;8533;48.426;10.868;2024-01-15T05:51:24;5.77;;;3.50;;
16832;SDS011;8533;48.426;10.868;2024-01-15T05:53:49;8.33;;;4.17;;
16832;SDS011;8533;48.426;10.868;2024-01-15T05:56:15;6.30;;;3.60;;
16832;SDS011;8533;48.426;10.868;2024-01-15T05:58:40;8.03;;;3.63;;
16832;SDS011;8533;48.426;10.868;2024-01-15T06:01:06;9.07;;;3.97;;
16832;SDS011;8533;48.426;10.868;2024-01-15T06:03:31;8.33;;;3.57;;
16832;SDS011;8533;48.426;10.868;2024-01-15T06:05:56;7.50;;;4.00;;
16832;SDS011;8533;48.426;10.868;2024-01-15T06:08:22;7.87;;;3.60;;
16832;SDS011;8533;48.426;10.868;2024-01-15T06:10:47;8.03;;;3.50;;
16832;SDS011;8533;48.426;10.868;2024-01-15T06:13:12;10.73;;;4.30;;
16832;SDS011;8533;48.426;10.868;2024-01-15T06:15:38;9.17;;;4.43;;
16832;SDS011;8533;48.426;10.868;2024-01-15T06:18:04;9.93;;;4.23;;
16832;SDS011;8533;48.426;10.868;2024-01-15T06:20:29;11.83;;;4.03;;
16832;SDS011;8533;48.426;10.868;2024-01-15T06:22:54;8.57;;;4.10;;
16832;SDS011;8533;48.426;10.868;2024-01-15T06:25:20;8.23;;;3.93;;
16832;SDS011;8533;48.426;10.868;2024-01-15T06:27:45;7.03;;;4.20;;
16832;SDS011;8533;48.426;10.868;2024-01-15T06:30:11;6.10;;;3.43;;
16832;SDS011;8533;48.426;10.868;2024-01-15T06:32:36;6.07;;;3.20;;
16832;SDS011;8533;48.426;10.868;2024-01-15T06:35:02;8.13;;;3.63;;
16832;SDS011;8533;48.426;10.868;2024-01-15T06:37:27;8.33;;;4.10;;
16832;SDS011;8533;48.426;10.868;2024-01-15T06:39:52;6.50;;;3.40;;
16832;SDS011;8533;48.426;10.868;2024-01-15T06:42:18;6.77;;;2.80;;
16832;SDS011;8533;48.426;10.868;2024-01-15T06:44:43;4.87;;;2.50;;
16832;SDS011;8533;48.426;10.868;2024-01-15T06:47:08;5.40;;;3.20;;
16832;SDS011;8533;48.426;10.868;2024-01-15T06:49:34;6.33;;;3.47;;
16832;SDS011;8533;48.426;10.868;2024-01-15T06:51:59;6.40;;;3.00;;
16832;SDS011;8533;48.426;10.868;2024-01-15T06:54:24;5.47;;;3.50;;
16832;SDS011;8533;48.426;10.868;2024-01-15T06:56:51;6.37;;;3.50;;
16832;SDS011;8533;48.426;10.868;2024-01-15T06:59:16;6.33;;;3.60;;
16832;SDS011;8533;48.426;10.868;2024-01-15T07:01:41;7.47;;;3.07;;
16832;SDS011;8533;48.426;10.868;2024-01-15T07:04:07;7.17;;;3.30;;
16832;SDS011;8533;48.426;10.868;2024-01-15T07:06:33;7.30;;;3.73;;
16832;SDS011;8533;48.426;10.868;2024-01-15T07:08:58;9.47;;;3.90;;
16832;SDS011;8533;48.426;10.868;2024-01-15T07:11:23;6.37;;;3.00;;
16832;SDS011;8533;48.426;10.868;2024-01-15T07:13:49;9.43;;;3.70;;
16832;SDS011;8533;48.426;10.868;2024-01-15T07:16:14;6.60;;;2.93;;
16832;SDS011;8533;48.426;10.868;2024-01-15T07:18:40;5.67;;;3.30;;
16832;SDS011;8533;48.426;10.868;2024-01-15T07:21:05;6.87;;;3.63;;
16832;SDS011;8533;48.426;10.868;2024-01-15T07:23:31;7.00;;;3.33;;
16832;SDS011;8533;48.426;10.868;2024-01-15T07:25:56;7.27;;;3.27;;
16832;SDS011;8533;48.426;10.868;2024-01-15T07:28:22;11.23;;;3.50;;
16832;SDS011;8533;48.426;10.868;2024-01-15T07:30:47;8.47;;;3.50;;
16832;SDS011;8533;48.426;10.868;2024-01-15T07:33:12;6.73;;;3.40;;
16832;SDS011;8533;48.426;10.868;2024-01-15T07:35:38;7.07;;;3.47;;
16832;SDS011;8533;48.426;10.868;2024-01-15T07:38:03;6.80;;;3.10;;
16832;SDS011;8533;48.426;10.868;2024-01-15T07:40:28;7.83;;;3.90;;
16832;SDS011;8533;48.426;10.868;2024-01-15T07:42:53;7.30;;;3.53;;
16832;SDS011;8533;48.426;10.868;2024-01-15T07:45:19;6.30;;;3.33;;
16832;SDS011;8533;48.426;10.868;2024-01-15T07:47:44;7.47;;;3.90;;
16832;SDS011;8533;48.426;10.868;2024-01-15T07:50:09;6.97;;;3.57;;
16832;SDS011;8533;48.426;10.868;2024-01-15T07:52:35;6.90;;;2.93;;
16832;SDS011;8533;48.426;10.868;2024-01-15T07:55:01;5.67;;;3.63;;
16832;SDS011;8533;48.426;10.868;2024-01-15T07:57:28;4.73;;;2.67;;
16832;SDS011;8533;48.426;10.868;2024-01-15T07:59:53;6.73;;;3.60;;
16832;SDS011;8533;48.426;10.868;2024-01-15T08:02:19;4.00;;;2.87;;
16832;SDS011;8533;48.426;10.868;2024-01-15T08:04:44;4.23;;;2.97;;
16832;SDS011;8533;48.426;10.868;2024-01-15T08:07:10;5.17;;;2.90;;
16832;SDS011;8533;48.426;10.868;2024-01-15T08:09:36;3.93;;;2.70;;
16832;SDS011;8533;48.426;10.868;2024-01-15T08:12:01;3.77;;;2.40;;
16832;SDS011;8533;48.426;10.868;2024-01-15T08:14:27;4.13;;;2.63;;
16832;SDS011;8533;48.426;10.868;2024-01-15T08:16:52;7.27;;;2.90;;
16832;SDS011;8533;48.426;10.868;2024-01-15T08:19:17;10.10;;;3.50;;
16832;SDS011;8533;48.426;10.868;2024-01-15T08:21:44;4.83;;;2.77;;
16832;SDS011;8533;48.426;10.868;2024-01-15T08:24:10;6.37;;;3.50;;
16832;SDS011;8533;48.426;10.868;2024-01-15T08:26:35;6.57;;;3.23;;
16832;SDS011;8533;48.426;10.868;2024-01-15T08:29:00;7.13;;;4.10;;
16832;SDS011;8533;48.426;10.868;2024-01-15T08:31:26;9.60;;;3.57;;
16832;SDS011;8533;48.426;10.868;2024-01-15T08:33:52;7.67;;;3.43;;
16832;SDS011;8533;48.426;10.868;2024-01-15T08:36:17;10.20;;;3.17;;
16832;SDS011;8533;48.426;10.868;2024-01-15T08:38:43;9.67;;;3.23;;
16832;SDS011;8533;48.426;10.868;2024-01-15T08:41:09;5.37;;;3.30;;
16832;SDS011;8533;48.426;10.868;2024-01-15T08:43:35;7.37;;;3.63;;
16832;SDS011;8533;48.426;10.868;2024-01-15T08:46:00;7.13;;;3.30;;
16832;SDS011;8533;48.426;10.868;2024-01-15T08:48:26;6.67;;;3.07;;
16832;SDS011;8533;48.426;10.868;2024-01-15T08:50:55;8.23;;;3.10;;
16832;SDS011;8533;48.426;10.868;2024-01-15T08:53:21;6.40;;;3.17;;
16832;SDS011;8533;48.426;10.868;2024-01-15T08:55:46;5.13;;;3.00;;
16832;SDS011;8533;48.426;10.868;2024-01-15T08:58:12;6.63;;;3.13;;
16832;SDS011;8533;48.426;10.868;2024-01-15T09:00:38;5.47;;;3.40;;
16832;SDS011;8533;48.426;10.868;2024-01-15T09:03:03;7.70;;;3.43;;
16832;SDS011;8533;48.426;10.868;2024-01-15T09:05:29;8.17;;;3.03;;
16832;SDS011;8533;48.426;10.868;2024-01-15T09:07:55;4.23;;;2.57;;
16832;SDS011;8533;48.426;10.868;2024-01-15T09:10:21;5.00;;;2.87;;
16832;SDS011;8533;48.426;10.868;2024-01-15T09:12:46;6.87;;;2.63;;
16832;SDS011;8533;48.426;10.868;2024-01-15T09:15:12;5.70;;;3.47;;
16832;SDS011;8533;48.426;10.868;2024-01-15T09:17:37;7.10;;;3.73;;
16832;SDS011;8533;48.426;10.868;2024-01-15T09:20:02;8.23;;;3.37;;
16832;SDS011;8533;48.426;10.868;2024-01-15T09:22:30;8.27;;;3.57;;
16832;SDS011;8533;48.426;10.868;2024-01-15T09:24:56;6.50;;;3.33;;
16832;SDS011;8533;48.426;10.868;2024-01-15T09:27:21;5.87;;;2.70;;
16832;SDS011;8533;48.426;10.868;2024-01-15T09:29:46;3.73;;;2.57;;
16832;SDS011;8533;48.426;10.868;2024-01-15T09:32:12;7.30;;;3.27;;
16832;SDS011;8533;48.426;10.868;2024-01-15T09:34:37;7.33;;;3.10;;
16832;SDS011;8533;48.426;10.868;2024-01-15T09:37:03;3.37;;;2.37;;
16832;SDS011;8533;48.426;10.868;2024-01-15T09:39:29;4.33;;;2.43;;
16832;SDS011;8533;48.426;10.868;2024-01-15T09:41:55;3.07;;;2.10;;
16832;SDS011;8533;48.426;10.868;2024-01-15T09:44:22;7.73;;;2.50;;
16832;SDS011;8533;48.426;10.868;2024-01-15T09:46:48;10.57;;;4.23;;
16832;SDS011;8533;48.426;10.868;2024-01-15T09:49:17;10.03;;;5.30;;
16832;SDS011;8533;48.426;10.868;2024-01-15T09:51:42;7.73;;;4.23;;
16832;SDS011;8533;48.426;10.868;2024-01-15T09:54:08;15.20;;;5.33;;
16832;SDS011;8533;48.426;10.868;2024-01-15T09:56:34;19.70;;;6.33;;
16832;SDS011;8533;48.426;10.868;2024-01-15T09:59:00;9.07;;;3.20;;
16832;SDS011;8533;48.426;10.868;2024-01-15T10:01:26;10.20;;;4.67;;
16832;SDS011;8533;48.426;10.868;2024-01-15T10:03:53;8.47;;;4.50;;
16832;SDS011;8533;48.426;10.868;2024-01-15T10:06:19;3.83;;;2.43;;
16832;SDS011;8533;48.426;10.868;2024-01-15T10:08:47;8.57;;;2.23;;
16832;SDS011;8533;48.426;10.868;2024-01-15T10:11:14;2.23;;;1.73;;
16832;SDS011;8533;48.426;10.868;2024-01-15T10:13:39;4.67;;;1.93;;
16832;SDS011;8533;48.426;10.868;2024-01-15T10:16:05;3.80;;;1.73;;
16832;SDS011;8533;48.426;10.868;2024-01-15T10:18:31;6.60;;;2.20;;
16832;SDS011;8533;48.426;10.868;2024-01-15T10:20:57;2.90;;;1.57;;
16832;SDS011;8533;48.426;10.868;2024-01-15T10:23:23;6.57;;;1.90;;
16832;SDS011;8533;48.426;10.868;2024-01-15T10:25:49;3.90;;;2.30;;
16832;SDS011;8533;48.426;10.868;2024-01-15T10:28:15;8.43;;;1.87;;
16832;SDS011;8533;48.426;10.868;2024-01-15T10:30:41;3.03;;;1.40;;
16832;SDS011;8533;48.426;10.868;2024-01-15T10:33:06;2.53;;;1.50;;
16832;SDS011;8533;48.426;10.868;2024-01-15T10:35:32;13.77;;;4.57;;
16832;SDS011;8533;48.426;10.868;2024-01-15T10:37:59;2.93;;;1.50;;
16832;SDS011;8533;48.426;10.868;2024-01-15T10:40:25;2.23;;;1.50;;
16832;SDS011;8533;48.426;10.868;2024-01-15T10:42:50;5.73;;;1.70;;
16832;SDS011;8533;48.426;10.868;2024-01-15T10:45:16;1.80;;;1.60;;
16832;SDS011;8533;48.426;10.868;2024-01-15T10:47:42;4.10;;;2.10;;
16832;SDS011;8533;48.426;10.868;2024-01-15T10:50:08;3.30;;;1.87;;
16832;SDS011;8533;48.426;10.868;2024-01-15T10:52:35;4.97;;;1.80;;
16832;SDS011;8533;48.426;10.868;2024-01-15T10:55:08;1.60;;;1.50;;
16832;SDS011;8533;48.426;10.868;2024-01-15T10:57:34;2.97;;;1.50;;
16832;SDS011;8533;48.426;10.868;2024-01-15T11:00:00;2.17;;;1.60;;
16832;SDS011;8533;48.426;10.868;2024-01-15T11:02:29;9.20;;;2.33;;
16832;SDS011;8533;48.426;10.868;2024-01-15T11:04:55;2.97;;;1.60;;
16832;SDS011;8533;48.426;10.868;2024-01-15T11:07:21;1.60;;;1.50;;
16832;SDS011;8533;48.426;10.868;2024-01-15T11:09:48;2.13;;;1.80;;
16832;SDS011;8533;48.426;10.868;2024-01-15T11:12:15;6.33;;;1.80;;
16832;SDS011;8533;48.426;10.868;2024-01-15T11:14:45;2.77;;;1.70;;
16832;SDS011;8533;48.426;10.868;2024-01-15T11:17:13;3.93;;;1.90;;
16832;SDS011;8533;48.426;10.868;2024-01-15T11:19:46;2.97;;;1.90;;
16832;SDS011;8533;48.426;10.868;2024-01-15T11:25:02;3.50;;;2.10;;
16832;SDS011;8533;48.426;10.868;2024-01-15T11:27:41;3.93;;;2.13;;
16832;SDS011;8533;48.426;10.868;2024-01-15T11:30:12;4.37;;;1.90;;
16832;SDS011;8533;48.426;10.868;2024-01-15T11:32:38;3.80;;;1.80;;
16832;SDS011;8533;48.426;10.868;2024-01-15T11:35:07;1.73;;;1.50;;
16832;SDS011;8533;48.426;10.868;2024-01-15T11:40:18;2.50;;;1.77;;
16832;SDS011;8533;48.426;10.868;2024-01-15T11:42:45;4.30;;;1.97;;
16832;SDS011;8533;48.426;10.868;2024-01-15T11:45:11;3.23;;;2.27;;
16832;SDS011;8533;48.426;10.868;2024-01-15T11:50:14;2.93;;;2.00;;
16832;SDS011;8533;48.426;10.868;2024-01-15T11:52:39;2.23;;;2.03;;
16832;SDS011;8533;48.426;10.868;2024-01-15T11:55:19;2.47;;;1.80;;
16832;SDS011;8533;48.426;10.868;2024-01-15T11:57:52;2.83;;;2.07;;
16832;SDS011;8533;48.426;10.868;2024-01-15T12:00:19;3.30;;;1.73;;
16832;SDS011;8533;48.426;10.868;2024-01-15T12:02:46;3.27;;;1.83;;
16832;SDS011;8533;48.426;10.868;2024-01-15T12:05:13;5.57;;;1.80;;
16832;SDS011;8533;48.426;10.868;2024-01-15T12:07:40;5.73;;;2.30;;
16832;SDS011;8533;48.426;10.868;2024-01-15T12:10:10;3.23;;;1.90;;
16832;SDS011;8533;48.426;10.868;2024-01-15T12:15:13;3.60;;;2.23;;
16832;SDS011;8533;48.426;10.868;2024-01-15T12:17:40;4.30;;;2.10;;
16832;SDS011;8533;48.426;10.868;2024-01-15T12:20:05;3.70;;;2.10;;
16832;SDS011;8533;48.426;10.868;2024-01-15T12:22:31;3.63;;;2.27;;
16832;SDS011;8533;48.426;10.868;2024-01-15T12:24:56;3.77;;;2.20;;
16832;SDS011;8533;48.426;10.868;2024-01-15T12:27:22;3.40;;;2.10;;
16832;SDS011;8533;48.426;10.868;2024-01-15T12:29:48;5.20;;;2.20;;
16832;SDS011;8533;48.426;10.868;2024-01-15T12:32:14;5.10;;;2.47;;
16832;SDS011;8533;48.426;10.868;2024-01-15T12:34:39;5.27;;;2.30;;
16832;SDS011;8533;48.426;10.868;2024-01-15T12:37:06;3.57;;;2.50;;
16832;SDS011;8533;48.426;10.868;2024-01-15T12:39:33;6.07;;;2.50;;
16832;SDS011;8533;48.426;10.868;2024-01-15T12:41:59;4.33;;;2.17;;
16832;SDS011;8533;48.426;10.868;2024-01-15T12:44:24;4.80;;;2.20;;
16832;SDS011;8533;48.426;10.868;2024-01-15T12:46:49;3.53;;;2.57;;
16832;SDS011;8533;48.426;10.868;2024-01-15T12:49:16;3.60;;;2.30;;
16832;SDS011;8533;48.426;10.868;2024-01-15T12:51:41;3.87;;;2.67;;
16832;SDS011;8533;48.426;10.868;2024-01-15T12:54:06;3.30;;;2.17;;
16832;SDS011;8533;48.426;10.868;2024-01-15T12:56:31;5.90;;;2.43;;
16832;SDS011;8533;48.426;10.868;2024-01-15T12:58:57;3.60;;;2.53;;
16832;SDS011;8533;48.426;10.868;2024-01-15T13:01:22;2.27;;;1.90;;
16832;SDS011;8533;48.426;10.868;2024-01-15T13:03:47;3.20;;;2.43;;
16832;SDS011;8533;48.426;10.868;2024-01-15T13:06:13;4.80;;;3.00;;
16832;SDS011;8533;48.426;10.868;2024-01-15T13:08:38;4.07;;;2.57;;
16832;SDS011;8533;48.426;10.868;2024-01-15T13:11:03;3.30;;;2.37;;
16832;SDS011;8533;48.426;10.868;2024-01-15T13:13:29;4.70;;;2.50;;
16832;SDS011;8533;48.426;10.868;2024-01-15T13:15:55;5.27;;;2.50;;
16832;SDS011;8533;48.426;10.868;2024-01-15T13:18:20;5.87;;;2.90;;
16832;SDS011;8533;48.426;10.868;2024-01-15T13:20:46;7.57;;;2.97;;
16832;SDS011;8533;48.426;10.868;2024-01-15T13:23:11;7.30;;;2.77;;
16832;SDS011;8533;48.426;10.868;2024-01-15T13:25:37;6.43;;;3.10;;
16832;SDS011;8533;48.426;10.868;2024-01-15T13:28:04;5.50;;;3.10;;
16832;SDS011;8533;48.426;10.868;2024-01-15T13:30:30;6.10;;;3.03;;
16832;SDS011;8533;48.426;10.868;2024-01-15T13:32:56;5.97;;;2.73;;
16832;SDS011;8533;48.426;10.868;2024-01-15T13:35:22;5.97;;;2.87;;
16832;SDS011;8533;48.426;10.868;2024-01-15T13:37:47;7.33;;;2.97;;
16832;SDS011;8533;48.426;10.868;2024-01-15T13:40:12;5.27;;;2.57;;
16832;SDS011;8533;48.426;10.868;2024-01-15T13:42:41;6.37;;;3.00;;
16832;SDS011;8533;48.426;10.868;2024-01-15T13:45:07;4.30;;;2.83;;
16832;SDS011;8533;48.426;10.868;2024-01-15T13:47:32;3.93;;;2.27;;
16832;SDS011;8533;48.426;10.868;2024-01-15T13:49:58;4.63;;;2.73;;
16832;SDS011;8533;48.426;10.868;2024-01-15T13:52:24;7.37;;;2.83;;
16832;SDS011;8533;48.426;10.868;2024-01-15T13:54:49;7.93;;;3.23;;
16832;SDS011;8533;48.426;10.868;2024-01-15T13:57:14;8.33;;;3.13;;
16832;SDS011;8533;48.426;10.868;2024-01-15T13:59:40;11.93;;;3.27;;
16832;SDS011;8533;48.426;10.868;2024-01-15T14:02:05;5.80;;;3.17;;
16832;SDS011;8533;48.426;10.868;2024-01-15T14:04:31;6.30;;;3.27;;
16832;SDS011;8533;48.426;10.868;2024-01-15T14:06:56;7.37;;;3.10;;
16832;SDS011;8533;48.426;10.868;2024-01-15T14:09:21;6.13;;;3.30;;
16832;SDS011;8533;48.426;10.868;2024-01-15T14:11:47;6.73;;;3.40;;
16832;SDS011;8533;48.426;10.868;2024-01-15T14:14:13;7.97;;;3.30;;
16832;SDS011;8533;48.426;10.868;2024-01-15T14:16:39;6.63;;;3.47;;
16832;SDS011;8533;48.426;10.868;2024-01-15T14:19:04;6.77;;;3.20;;
16832;SDS011;8533;48.426;10.868;2024-01-15T14:21:31;9.10;;;4.20;;
16832;SDS011;8533;48.426;10.868;2024-01-15T14:23:56;10.37;;;4.30;;
16832;SDS011;8533;48.426;10.868;2024-01-15T14:26:22;10.00;;;3.70;;
16832;SDS011;8533;48.426;10.868;2024-01-15T14:28:47;7.50;;;4.07;;
16832;SDS011;8533;48.426;10.868;2024-01-15T14:31:13;6.43;;;4.13;;
16832;SDS011;8533;48.426;10.868;2024-01-15T14:33:38;9.50;;;3.80;;
16832;SDS011;8533;48.426;10.868;2024-01-15T14:36:04;12.03;;;5.93;;
16832;SDS011;8533;48.426;10.868;2024-01-15T14:38:30;9.07;;;3.80;;
16832;SDS011;8533;48.426;10.868;2024-01-15T14:40:55;8.17;;;4.30;;
16832;SDS011;8533;48.426;10.868;2024-01-15T14:43:20;9.10;;;4.87;;
16832;SDS011;8533;48.426;10.868;2024-01-15T14:45:46;9.00;;;4.30;;
16832;SDS011;8533;48.426;10.868;2024-01-15T14:48:11;6.90;;;4.37;;